sensor_id;sensor_type;location;lat;lon;timestamp;P1;durP1;ratioP1;P2;durP2;ratioP2
19167;SDS011;9716;53.114;18.040;2023-06-26T00:01:33;2.90;;;2.20;;
19167;SDS011;9716;53.114;18.040;2023-06-26T00:04:02;4.72;;;2.58;;
19167;SDS011;9716;53.114;18.040;2023-06-26T00:06:32;3.25;;;2.40;;
19167;SDS011;9716;53.114;18.040;2023-06-26T00:09:00;4.10;;;2.30;;
19167;SDS011;9716;53.114;18.040;2023-06-26T00:11:29;4.47;;;2.28;;
19167;SDS011;9716;53.114;18.040;2023-06-26T00:13:59;3.25;;;2.03;;
19167;SDS011;9716;53.114;18.040;2023-06-26T00:16:29;3.50;;;1.92;;
19167;SDS011;9716;53.114;18.040;2023-06-26T00:18:57;3.33;;;2.20;;
19167;SDS011;9716;53.114;18.040;2023-06-26T00:21:26;3.92;;;2.35;;
19167;SDS011;9716;53.114;18.040;2023-06-26T00:23:56;3.90;;;2.33;;
19167;SDS011;9716;53.114;18.040;2023-06-26T00:26:25;7.07;;;3.25;;
19167;SDS011;9716;53.114;18.040;2023-06-26T00:28:53;4.93;;;2.05;;
19167;SDS011;9716;53.114;18.040;2023-06-26T00:31:22;3.45;;;1.92;;
19167;SDS011;9716;53.114;18.040;2023-06-26T00:33:50;3.28;;;2.22;;
19167;SDS011;9716;53.114;18.040;2023-06-26T00:36:19;3.97;;;2.53;;
19167;SDS011;9716;53.114;18.040;2023-06-26T00:38:49;4.25;;;2.10;;
19167;SDS011;9716;53.114;18.040;2023-06-26T00:41:19;4.50;;;2.38;;
19167;SDS011;9716;53.114;18.040;2023-06-26T00:43:48;4.25;;;2.55;;
19167;SDS011;9716;53.114;18.040;2023-06-26T00:46:16;4.40;;;2.42;;
19167;SDS011;9716;53.114;18.040;2023-06-26T00:48:46;3.40;;;2.10;;
19167;SDS011;9716;53.114;18.040;2023-06-26T00:51:16;8.93;;;2.75;;
19167;SDS011;9716;53.114;18.040;2023-06-26T00:53:44;7.90;;;2.58;;
19167;SDS011;9716;53.114;18.040;2023-06-26T00:56:13;3.75;;;2.03;;
19167;SDS011;9716;53.114;18.040;2023-06-26T00:58:44;3.70;;;2.58;;
19167;SDS011;9716;53.114;18.040;2023-06-26T01:01:13;10.30;;;2.60;;
19167;SDS011;9716;53.114;18.040;2023-06-26T01:03:42;4.90;;;2.08;;
19167;SDS011;9716;53.114;18.040;2023-06-26T01:06:12;5.28;;;2.35;;
19167;SDS011;9716;53.114;18.040;2023-06-26T01:08:42;3.38;;;2.08;;
19167;SDS011;9716;53.114;18.040;2023-06-26T01:11:12;6.30;;;2.20;;
19167;SDS011;9716;53.114;18.040;2023-06-26T01:13:42;3.53;;;2.67;;
19167;SDS011;9716;53.114;18.040;2023-06-26T01:16:12;3.40;;;2.50;;
19167;SDS011;9716;53.114;18.040;2023-06-26T01:18:45;5.47;;;2.63;;
19167;SDS011;9716;53.114;18.040;2023-06-26T01:21:15;4.47;;;2.58;;
19167;SDS011;9716;53.114;18.040;2023-06-26T01:23:48;2.60;;;2.00;;
19167;SDS011;9716;53.114;18.040;2023-06-26T01:26:28;4.35;;;2.65;;
19167;SDS011;9716;53.114;18.040;2023-06-26T01:29:02;4.88;;;2.58;;
19167;SDS011;9716;53.114;18.040;2023-06-26T01:31:34;10.30;;;2.63;;
19167;SDS011;9716;53.114;18.040;2023-06-26T01:34:04;3.80;;;2.30;;
19167;SDS011;9716;53.114;18.040;2023-06-26T01:36:34;4.90;;;2.80;;
19167;SDS011;9716;53.114;18.040;2023-06-26T01:39:03;5.22;;;2.53;;
19167;SDS011;9716;53.114;18.040;2023-06-26T01:41:33;3.83;;;2.38;;
19167;SDS011;9716;53.114;18.040;2023-06-26T01:44:04;7.03;;;2.40;;
19167;SDS011;9716;53.114;18.040;2023-06-26T01:46:45;3.28;;;2.50;;
19167;SDS011;9716;53.114;18.040;2023-06-26T01:49:19;5.93;;;2.53;;
19167;SDS011;9716;53.114;18.040;2023-06-26T01:51:58;3.75;;;2.03;;
19167;SDS011;9716;53.114;18.040;2023-06-26T01:54:37;2.90;;;2.30;;
19167;SDS011;9716;53.114;18.040;2023-06-26T01:57:11;3.45;;;2.58;;
19167;SDS011;9716;53.114;18.040;2023-06-26T01:59:40;6.50;;;2.40;;
19167;SDS011;9716;53.114;18.040;2023-06-26T02:02:09;3.22;;;2.40;;
19167;SDS011;9716;53.114;18.040;2023-06-26T02:04:38;3.10;;;2.30;;
19167;SDS011;9716;53.114;18.040;2023-06-26T02:07:07;3.58;;;2.22;;
19167;SDS011;9716;53.114;18.040;2023-06-26T02:09:37;4.28;;;2.60;;
19167;SDS011;9716;53.114;18.040;2023-06-26T02:12:06;3.72;;;2.42;;
19167;SDS011;9716;53.114;18.040;2023-06-26T02:14:36;4.88;;;2.85;;
19167;SDS011;9716;53.114;18.040;2023-06-26T02:17:05;5.25;;;2.20;;
19167;SDS011;9716;53.114;18.040;2023-06-26T02:19:35;4.45;;;2.47;;
19167;SDS011;9716;53.114;18.040;2023-06-26T02:22:04;5.03;;;2.15;;
19167;SDS011;9716;53.114;18.040;2023-06-26T02:24:32;3.25;;;1.92;;
19167;SDS011;9716;53.114;18.040;2023-06-26T02:27:01;4.60;;;2.45;;
19167;SDS011;9716;53.114;18.040;2023-06-26T02:29:30;3.53;;;2.55;;
19167;SDS011;9716;53.114;18.040;2023-06-26T02:32:00;3.13;;;2.45;;
19167;SDS011;9716;53.114;18.040;2023-06-26T02:34:29;7.13;;;3.13;;
19167;SDS011;9716;53.114;18.040;2023-06-26T02:36:57;8.77;;;3.60;;
19167;SDS011;9716;53.114;18.040;2023-06-26T02:39:27;3.85;;;2.47;;
19167;SDS011;9716;53.114;18.040;2023-06-26T02:41:55;4.05;;;2.90;;
19167;SDS011;9716;53.114;18.040;2023-06-26T02:44:24;5.65;;;3.03;;
19167;SDS011;9716;53.114;18.040;2023-06-26T02:46:52;5.03;;;2.25;;
19167;SDS011;9716;53.114;18.040;2023-06-26T02:49:22;7.28;;;3.30;;
19167;SDS011;9716;53.114;18.040;2023-06-26T02:51:51;7.60;;;3.88;;
19167;SDS011;9716;53.114;18.040;2023-06-26T02:54:19;4.55;;;2.30;;
19167;SDS011;9716;53.114;18.040;2023-06-26T02:56:48;5.32;;;3.22;;
19167;SDS011;9716;53.114;18.040;2023-06-26T02:59:17;7.47;;;2.92;;
19167;SDS011;9716;53.114;18.040;2023-06-26T03:01:45;4.07;;;2.47;;
19167;SDS011;9716;53.114;18.040;2023-06-26T03:04:14;3.50;;;2.22;;
19167;SDS011;9716;53.114;18.040;2023-06-26T03:06:46;8.35;;;3.40;;
19167;SDS011;9716;53.114;18.040;2023-06-26T03:09:14;7.13;;;3.20;;
19167;SDS011;9716;53.114;18.040;2023-06-26T03:11:44;5.13;;;2.72;;
19167;SDS011;9716;53.114;18.040;2023-06-26T03:14:12;4.55;;;2.85;;
19167;SDS011;9716;53.114;18.040;2023-06-26T03:16:41;7.43;;;3.00;;
19167;SDS011;9716;53.114;18.040;2023-06-26T03:19:09;6.35;;;3.00;;
19167;SDS011;9716;53.114;18.040;2023-06-26T03:21:38;3.58;;;2.80;;
19167;SDS011;9716;53.114;18.040;2023-06-26T03:24:08;6.43;;;3.08;;
19167;SDS011;9716;53.114;18.040;2023-06-26T03:26:37;7.55;;;4.03;;
19167;SDS011;9716;53.114;18.040;2023-06-26T03:29:05;5.88;;;3.30;;
19167;SDS011;9716;53.114;18.040;2023-06-26T03:31:33;5.97;;;3.10;;
19167;SDS011;9716;53.114;18.040;2023-06-26T03:34:02;9.70;;;3.95;;
19167;SDS011;9716;53.114;18.040;2023-06-26T03:36:30;5.75;;;3.03;;
19167;SDS011;9716;53.114;18.040;2023-06-26T03:38:59;5.97;;;3.53;;
19167;SDS011;9716;53.114;18.040;2023-06-26T03:41:29;3.80;;;2.47;;
19167;SDS011;9716;53.114;18.040;2023-06-26T03:43:57;6.07;;;3.28;;
19167;SDS011;9716;53.114;18.040;2023-06-26T03:46:28;5.07;;;2.92;;
19167;SDS011;9716;53.114;18.040;2023-06-26T03:48:56;7.72;;;3.20;;
19167;SDS011;9716;53.114;18.040;2023-06-26T03:51:25;4.68;;;3.05;;
19167;SDS011;9716;53.114;18.040;2023-06-26T03:53:54;6.72;;;3.80;;
19167;SDS011;9716;53.114;18.040;2023-06-26T03:56:22;5.35;;;2.92;;
19167;SDS011;9716;53.114;18.040;2023-06-26T03:58:52;4.50;;;2.72;;
19167;SDS011;9716;53.114;18.040;2023-06-26T04:01:21;6.25;;;3.05;;
19167;SDS011;9716;53.114;18.040;2023-06-26T04:03:49;7.00;;;3.33;;
19167;SDS011;9716;53.114;18.040;2023-06-26T04:06:18;9.70;;;3.33;;
19167;SDS011;9716;53.114;18.040;2023-06-26T04:08:46;4.38;;;2.78;;
19167;SDS011;9716;53.114;18.040;2023-06-26T04:11:15;5.50;;;3.08;;
19167;SDS011;9716;53.114;18.040;2023-06-26T04:13:44;3.97;;;2.60;;
19167;SDS011;9716;53.114;18.040;2023-06-26T04:16:14;5.18;;;2.70;;
19167;SDS011;9716;53.114;18.040;2023-06-26T04:18:42;5.88;;;3.15;;
19167;SDS011;9716;53.114;18.040;2023-06-26T04:21:11;8.05;;;4.10;;
19167;SDS011;9716;53.114;18.040;2023-06-26T04:23:40;7.53;;;3.10;;
19167;SDS011;9716;53.114;18.040;2023-06-26T04:26:09;7.22;;;3.03;;
19167;SDS011;9716;53.114;18.040;2023-06-26T04:28:40;5.22;;;3.17;;
19167;SDS011;9716;53.114;18.040;2023-06-26T04:31:11;6.00;;;4.22;;
19167;SDS011;9716;53.114;18.040;2023-06-26T04:33:41;5.93;;;3.85;;
19167;SDS011;9716;53.114;18.040;2023-06-26T04:36:09;5.75;;;3.83;;
19167;SDS011;9716;53.114;18.040;2023-06-26T04:38:38;4.85;;;2.92;;
19167;SDS011;9716;53.114;18.040;2023-06-26T04:41:07;5.45;;;3.20;;
19167;SDS011;9716;53.114;18.040;2023-06-26T04:43:35;6.40;;;3.38;;
19167;SDS011;9716;53.114;18.040;2023-06-26T04:46:04;6.70;;;3.22;;
19167;SDS011;9716;53.114;18.040;2023-06-26T04:48:33;6.78;;;3.05;;
19167;SDS011;9716;53.114;18.040;2023-06-26T04:51:03;7.20;;;3.95;;
19167;SDS011;9716;53.114;18.040;2023-06-26T04:53:32;5.28;;;3.30;;
19167;SDS011;9716;53.114;18.040;2023-06-26T04:56:00;8.15;;;3.67;;
19167;SDS011;9716;53.114;18.040;2023-06-26T04:58:29;6.18;;;3.70;;
19167;SDS011;9716;53.114;18.040;2023-06-26T05:00:58;6.05;;;3.13;;
19167;SDS011;9716;53.114;18.040;2023-06-26T05:03:28;6.25;;;3.10;;
19167;SDS011;9716;53.114;18.040;2023-06-26T05:05:57;6.15;;;2.85;;
19167;SDS011;9716;53.114;18.040;2023-06-26T05:08:28;4.95;;;2.75;;
19167;SDS011;9716;53.114;18.040;2023-06-26T05:10:57;4.07;;;3.15;;
19167;SDS011;9716;53.114;18.040;2023-06-26T05:13:25;7.72;;;4.00;;
19167;SDS011;9716;53.114;18.040;2023-06-26T05:15:55;6.10;;;3.33;;
19167;SDS011;9716;53.114;18.040;2023-06-26T05:18:23;4.40;;;2.90;;
19167;SDS011;9716;53.114;18.040;2023-06-26T05:20:52;5.78;;;3.13;;
19167;SDS011;9716;53.114;18.040;2023-06-26T05:23:21;5.63;;;3.50;;
19167;SDS011;9716;53.114;18.040;2023-06-26T05:25:55;5.75;;;3.20;;
19167;SDS011;9716;53.114;18.040;2023-06-26T05:28:24;4.53;;;3.45;;
19167;SDS011;9716;53.114;18.040;2023-06-26T05:30:54;6.05;;;3.08;;
19167;SDS011;9716;53.114;18.040;2023-06-26T05:33:24;6.55;;;3.20;;
19167;SDS011;9716;53.114;18.040;2023-06-26T05:35:54;8.80;;;3.88;;
19167;SDS011;9716;53.114;18.040;2023-06-26T05:38:23;4.68;;;3.17;;
19167;SDS011;9716;53.114;18.040;2023-06-26T05:40:54;5.20;;;2.97;;
19167;SDS011;9716;53.114;18.040;2023-06-26T05:43:24;12.75;;;3.10;;
19167;SDS011;9716;53.114;18.040;2023-06-26T05:45:55;11.35;;;3.53;;
19167;SDS011;9716;53.114;18.040;2023-06-26T05:48:24;4.68;;;2.90;;
19167;SDS011;9716;53.114;18.040;2023-06-26T05:50:53;14.48;;;3.55;;
19167;SDS011;9716;53.114;18.040;2023-06-26T05:53:22;4.90;;;3.28;;
19167;SDS011;9716;53.114;18.040;2023-06-26T05:55:51;7.25;;;3.40;;
19167;SDS011;9716;53.114;18.040;2023-06-26T05:58:21;5.35;;;3.20;;
19167;SDS011;9716;53.114;18.040;2023-06-26T06:00:54;9.30;;;3.90;;
19167;SDS011;9716;53.114;18.040;2023-06-26T06:03:23;6.00;;;3.40;;
19167;SDS011;9716;53.114;18.040;2023-06-26T06:05:52;4.80;;;2.83;;
19167;SDS011;9716;53.114;18.040;2023-06-26T06:08:20;4.78;;;2.67;;
19167;SDS011;9716;53.114;18.040;2023-06-26T06:10:49;12.30;;;3.30;;
19167;SDS011;9716;53.114;18.040;2023-06-26T06:13:17;4.57;;;3.15;;
19167;SDS011;9716;53.114;18.040;2023-06-26T06:15:48;11.45;;;3.38;;
19167;SDS011;9716;53.114;18.040;2023-06-26T06:18:16;7.40;;;3.25;;
19167;SDS011;9716;53.114;18.040;2023-06-26T06:20:45;12.77;;;3.47;;
19167;SDS011;9716;53.114;18.040;2023-06-26T06:23:14;16.80;;;2.92;;
19167;SDS011;9716;53.114;18.040;2023-06-26T06:25:43;8.52;;;3.60;;
19167;SDS011;9716;53.114;18.040;2023-06-26T06:28:11;7.45;;;3.63;;
19167;SDS011;9716;53.114;18.040;2023-06-26T06:30:43;8.80;;;3.47;;
19167;SDS011;9716;53.114;18.040;2023-06-26T06:33:15;5.43;;;3.38;;
19167;SDS011;9716;53.114;18.040;2023-06-26T06:35:44;10.10;;;3.13;;
19167;SDS011;9716;53.114;18.040;2023-06-26T06:38:12;5.78;;;3.03;;
19167;SDS011;9716;53.114;18.040;2023-06-26T06:40:41;6.32;;;2.72;;
19167;SDS011;9716;53.114;18.040;2023-06-26T06:43:09;9.07;;;3.25;;
19167;SDS011;9716;53.114;18.040;2023-06-26T06:45:38;5.68;;;3.15;;
19167;SDS011;9716;53.114;18.040;2023-06-26T06:48:06;5.10;;;2.95;;
19167;SDS011;9716;53.114;18.040;2023-06-26T06:50:37;10.88;;;3.15;;
19167;SDS011;9716;53.114;18.040;2023-06-26T06:53:06;7.18;;;3.13;;
19167;SDS011;9716;53.114;18.040;2023-06-26T06:55:35;5.32;;;2.15;;
19167;SDS011;9716;53.114;18.040;2023-06-26T06:58:03;5.63;;;3.20;;
19167;SDS011;9716;53.114;18.040;2023-06-26T07:00:32;8.00;;;2.88;;
19167;SDS011;9716;53.114;18.040;2023-06-26T07:03:01;7.88;;;3.17;;
19167;SDS011;9716;53.114;18.040;2023-06-26T07:05:31;7.13;;;3.42;;
19167;SDS011;9716;53.114;18.040;2023-06-26T07:08:01;5.95;;;3.10;;
19167;SDS011;9716;53.114;18.040;2023-06-26T07:10:30;10.90;;;3.53;;
19167;SDS011;9716;53.114;18.040;2023-06-26T07:12:59;4.85;;;2.97;;
19167;SDS011;9716;53.114;18.040;2023-06-26T07:15:28;12.85;;;3.30;;
19167;SDS011;9716;53.114;18.040;2023-06-26T07:17:57;4.40;;;2.80;;
19167;SDS011;9716;53.114;18.040;2023-06-26T07:20:26;7.47;;;2.38;;
19167;SDS011;9716;53.114;18.040;2023-06-26T07:22:54;2.78;;;2.42;;
19167;SDS011;9716;53.114;18.040;2023-06-26T07:25:24;7.10;;;2.88;;
19167;SDS011;9716;53.114;18.040;2023-06-26T07:27:53;5.00;;;3.15;;
19167;SDS011;9716;53.114;18.040;2023-06-26T07:30:21;8.18;;;3.40;;
19167;SDS011;9716;53.114;18.040;2023-06-26T07:32:50;5.10;;;3.45;;
19167;SDS011;9716;53.114;18.040;2023-06-26T07:35:19;6.60;;;3.40;;
19167;SDS011;9716;53.114;18.040;2023-06-26T07:37:47;7.25;;;3.00;;
19167;SDS011;9716;53.114;18.040;2023-06-26T07:40:16;4.25;;;3.00;;
19167;SDS011;9716;53.114;18.040;2023-06-26T07:42:46;12.05;;;3.25;;
19167;SDS011;9716;53.114;18.040;2023-06-26T07:45:15;3.60;;;2.60;;
19167;SDS011;9716;53.114;18.040;2023-06-26T07:47:44;2.95;;;2.35;;
19167;SDS011;9716;53.114;18.040;2023-06-26T07:50:12;4.25;;;3.05;;
19167;SDS011;9716;53.114;18.040;2023-06-26T07:52:46;3.05;;;2.20;;
19167;SDS011;9716;53.114;18.040;2023-06-26T07:55:14;5.15;;;3.13;;
19167;SDS011;9716;53.114;18.040;2023-06-26T07:57:43;13.20;;;2.90;;
19167;SDS011;9716;53.114;18.040;2023-06-26T08:00:14;8.13;;;3.00;;
19167;SDS011;9716;53.114;18.040;2023-06-26T08:02:43;2.50;;;2.15;;
19167;SDS011;9716;53.114;18.040;2023-06-26T08:05:12;3.15;;;2.45;;
19167;SDS011;9716;53.114;18.040;2023-06-26T08:07:40;5.53;;;2.53;;
19167;SDS011;9716;53.114;18.040;2023-06-26T08:10:09;11.82;;;2.65;;
19167;SDS011;9716;53.114;18.040;2023-06-26T08:12:38;4.68;;;2.92;;
19167;SDS011;9716;53.114;18.040;2023-06-26T08:15:09;3.22;;;2.22;;
19167;SDS011;9716;53.114;18.040;2023-06-26T08:17:39;4.18;;;2.60;;
19167;SDS011;9716;53.114;18.040;2023-06-26T08:20:08;4.68;;;2.30;;
19167;SDS011;9716;53.114;18.040;2023-06-26T08:22:37;10.32;;;3.60;;
19167;SDS011;9716;53.114;18.040;2023-06-26T08:25:06;5.03;;;2.83;;
19167;SDS011;9716;53.114;18.040;2023-06-26T08:27:35;5.10;;;2.58;;
19167;SDS011;9716;53.114;18.040;2023-06-26T08:30:04;3.47;;;2.58;;
19167;SDS011;9716;53.114;18.040;2023-06-26T08:32:33;9.10;;;2.75;;
19167;SDS011;9716;53.114;18.040;2023-06-26T08:35:04;6.45;;;2.60;;
19167;SDS011;9716;53.114;18.040;2023-06-26T08:37:33;7.40;;;3.13;;
19167;SDS011;9716;53.114;18.040;2023-06-26T08:40:02;8.40;;;2.92;;
19167;SDS011;9716;53.114;18.040;2023-06-26T08:42:31;4.53;;;2.70;;
19167;SDS011;9716;53.114;18.040;2023-06-26T08:44:59;2.63;;;2.03;;
19167;SDS011;9716;53.114;18.040;2023-06-26T08:47:28;2.42;;;2.13;;
19167;SDS011;9716;53.114;18.040;2023-06-26T08:50:01;3.38;;;2.47;;
19167;SDS011;9716;53.114;18.040;2023-06-26T08:52:36;5.57;;;2.55;;
19167;SDS011;9716;53.114;18.040;2023-06-26T08:55:09;4.63;;;2.45;;
19167;SDS011;9716;53.114;18.040;2023-06-26T08:57:38;4.35;;;2.78;;
19167;SDS011;9716;53.114;18.040;2023-06-26T09:00:08;4.78;;;2.50;;
19167;SDS011;9716;53.114;18.040;2023-06-26T09:02:37;3.55;;;2.33;;
19167;SDS011;9716;53.114;18.040;2023-06-26T09:05:12;4.18;;;2.47;;
19167;SDS011;9716;53.114;18.040;2023-06-26T09:07:40;3.67;;;2.53;;
19167;SDS011;9716;53.114;18.040;2023-06-26T09:10:10;7.40;;;2.55;;
19167;SDS011;9716;53.114;18.040;2023-06-26T09:12:38;5.55;;;2.25;;
19167;SDS011;9716;53.114;18.040;2023-06-26T09:15:07;4.53;;;2.35;;
19167;SDS011;9716;53.114;18.040;2023-06-26T09:17:38;5.00;;;2.53;;
19167;SDS011;9716;53.114;18.040;2023-06-26T09:20:09;4.03;;;2.42;;
19167;SDS011;9716;53.114;18.040;2023-06-26T09:22:40;4.70;;;2.65;;
19167;SDS011;9716;53.114;18.040;2023-06-26T09:25:10;4.45;;;2.15;;
19167;SDS011;9716;53.114;18.040;2023-06-26T09:27:38;3.55;;;2.42;;
19167;SDS011;9716;53.114;18.040;2023-06-26T09:30:07;5.30;;;2.25;;
19167;SDS011;9716;53.114;18.040;2023-06-26T09:32:36;3.42;;;1.98;;
19167;SDS011;9716;53.114;18.040;2023-06-26T09:35:06;2.88;;;2.20;;
19167;SDS011;9716;53.114;18.040;2023-06-26T09:37:35;2.55;;;1.90;;
19167;SDS011;9716;53.114;18.040;2023-06-26T09:40:06;4.45;;;2.33;;
19167;SDS011;9716;53.114;18.040;2023-06-26T09:42:35;5.13;;;2.28;;
19167;SDS011;9716;53.114;18.040;2023-06-26T09:45:05;3.72;;;2.20;;
19167;SDS011;9716;53.114;18.040;2023-06-26T09:47:34;11.63;;;2.75;;
19167;SDS011;9716;53.114;18.040;2023-06-26T09:50:03;2.55;;;1.83;;
19167;SDS011;9716;53.114;18.040;2023-06-26T09:52:35;7.03;;;2.28;;
19167;SDS011;9716;53.114;18.040;2023-06-26T09:55:09;3.25;;;2.22;;
19167;SDS011;9716;53.114;18.040;2023-06-26T09:57:38;2.83;;;1.85;;
19167;SDS011;9716;53.114;18.040;2023-06-26T10:00:08;3.80;;;2.15;;
19167;SDS011;9716;53.114;18.040;2023-06-26T10:02:54;5.03;;;1.92;;
19167;SDS011;9716;53.114;18.040;2023-06-26T10:05:23;3.22;;;2.08;;
19167;SDS011;9716;53.114;18.040;2023-06-26T10:07:51;3.47;;;2.17;;
19167;SDS011;9716;53.114;18.040;2023-06-26T10:10:23;2.53;;;1.95;;
19167;SDS011;9716;53.114;18.040;2023-06-26T10:12:54;2.83;;;2.10;;
19167;SDS011;9716;53.114;18.040;2023-06-26T10:15:27;5.72;;;2.05;;
19167;SDS011;9716;53.114;18.040;2023-06-26T10:17:57;8.60;;;2.53;;
19167;SDS011;9716;53.114;18.040;2023-06-26T10:20:27;3.15;;;2.05;;
19167;SDS011;9716;53.114;18.040;2023-06-26T10:22:56;3.72;;;2.38;;
19167;SDS011;9716;53.114;18.040;2023-06-26T10:25:30;4.70;;;2.13;;
19167;SDS011;9716;53.114;18.040;2023-06-26T10:27:59;4.80;;;2.33;;
19167;SDS011;9716;53.114;18.040;2023-06-26T10:30:31;3.63;;;2.17;;
19167;SDS011;9716;53.114;18.040;2023-06-26T10:33:03;4.07;;;2.42;;
19167;SDS011;9716;53.114;18.040;2023-06-26T10:35:33;3.05;;;2.25;;
19167;SDS011;9716;53.114;18.040;2023-06-26T10:38:01;7.20;;;1.98;;
19167;SDS011;9716;53.114;18.040;2023-06-26T10:40:41;3.30;;;2.35;;
19167;SDS011;9716;53.114;18.040;2023-06-26T10:43:12;3.17;;;2.13;;
19167;SDS011;9716;53.114;18.040;2023-06-26T10:45:44;3.60;;;2.00;;
19167;SDS011;9716;53.114;18.040;2023-06-26T10:48:18;5.80;;;2.60;;
19167;SDS011;9716;53.114;18.040;2023-06-26T10:50:47;2.58;;;1.77;;
19167;SDS011;9716;53.114;18.040;2023-06-26T10:53:21;6.85;;;2.90;;
19167;SDS011;9716;53.114;18.040;2023-06-26T10:55:56;2.45;;;1.70;;
19167;SDS011;9716;53.114;18.040;2023-06-26T10:58:30;3.72;;;2.40;;
19167;SDS011;9716;53.114;18.040;2023-06-26T11:01:16;2.75;;;2.13;;
19167;SDS011;9716;53.114;18.040;2023-06-26T11:03:47;6.40;;;1.90;;
19167;SDS011;9716;53.114;18.040;2023-06-26T11:06:18;9.60;;;2.20;;
19167;SDS011;9716;53.114;18.040;2023-06-26T11:08:48;2.90;;;2.35;;
19167;SDS011;9716;53.114;18.040;2023-06-26T11:11:18;5.45;;;2.13;;
19167;SDS011;9716;53.114;18.040;2023-06-26T11:13:47;4.60;;;1.92;;
19167;SDS011;9716;53.114;18.040;2023-06-26T11:16:16;3.22;;;2.00;;
19167;SDS011;9716;53.114;18.040;2023-06-26T11:18:45;2.72;;;2.25;;
19167;SDS011;9716;53.114;18.040;2023-06-26T11:21:13;6.78;;;2.47;;
19167;SDS011;9716;53.114;18.040;2023-06-26T11:23:42;3.15;;;1.88;;
19167;SDS011;9716;53.114;18.040;2023-06-26T11:26:15;3.92;;;2.20;;
19167;SDS011;9716;53.114;18.040;2023-06-26T11:28:49;2.95;;;1.98;;
19167;SDS011;9716;53.114;18.040;2023-06-26T11:31:26;3.80;;;2.65;;
19167;SDS011;9716;53.114;18.040;2023-06-26T11:33:57;4.85;;;2.75;;
19167;SDS011;9716;53.114;18.040;2023-06-26T11:36:28;3.13;;;1.85;;
19167;SDS011;9716;53.114;18.040;2023-06-26T11:38:57;5.13;;;2.25;;
19167;SDS011;9716;53.114;18.040;2023-06-26T11:41:27;3.17;;;1.88;;
19167;SDS011;9716;53.114;18.040;2023-06-26T11:44:01;3.25;;;2.20;;
19167;SDS011;9716;53.114;18.040;2023-06-26T11:46:31;3.63;;;2.17;;
19167;SDS011;9716;53.114;18.040;2023-06-26T11:49:02;4.20;;;2.63;;
19167;SDS011;9716;53.114;18.040;2023-06-26T11:51:32;4.22;;;2.30;;
19167;SDS011;9716;53.114;18.040;2023-06-26T11:54:02;3.83;;;2.50;;
19167;SDS011;9716;53.114;18.040;2023-06-26T11:56:32;3.40;;;2.28;;
19167;SDS011;9716;53.114;18.040;2023-06-26T11:59:03;3.65;;;2.25;;
19167;SDS011;9716;53.114;18.040;2023-06-26T12:01:38;5.00;;;2.80;;
19167;SDS011;9716;53.114;18.040;2023-06-26T12:04:08;5.95;;;2.65;;
19167;SDS011;9716;53.114;18.040;2023-06-26T12:06:39;4.07;;;2.35;;
19167;SDS011;9716;53.114;18.040;2023-06-26T12:09:10;4.13;;;2.35;;
19167;SDS011;9716;53.114;18.040;2023-06-26T12:11:41;3.00;;;1.98;;
19167;SDS011;9716;53.114;18.040;2023-06-26T12:14:12;2.72;;;2.22;;
19167;SDS011;9716;53.114;18.040;2023-06-26T12:16:42;3.42;;;2.13;;
19167;SDS011;9716;53.114;18.040;2023-06-26T12:19:10;3.28;;;2.40;;
19167;SDS011;9716;53.114;18.040;2023-06-26T12:21:47;4.32;;;2.60;;
19167;SDS011;9716;53.114;18.040;2023-06-26T12:24:19;3.05;;;2.08;;
19167;SDS011;9716;53.114;18.040;2023-06-26T12:26:50;3.50;;;2.40;;
19167;SDS011;9716;53.114;18.040;2023-06-26T12:29:22;4.60;;;2.50;;
19167;SDS011;9716;53.114;18.040;2023-06-26T12:31:59;4.32;;;2.10;;
19167;SDS011;9716;53.114;18.040;2023-06-26T12:34:30;3.15;;;2.08;;
19167;SDS011;9716;53.114;18.040;2023-06-26T12:37:01;3.95;;;2.35;;
19167;SDS011;9716;53.114;18.040;2023-06-26T12:39:44;3.50;;;2.28;;
19167;SDS011;9716;53.114;18.040;2023-06-26T12:42:15;6.65;;;2.50;;
19167;SDS011;9716;53.114;18.040;2023-06-26T12:44:46;3.78;;;2.28;;
19167;SDS011;9716;53.114;18.040;2023-06-26T12:47:15;3.83;;;2.33;;
19167;SDS011;9716;53.114;18.040;2023-06-26T12:49:49;2.95;;;1.92;;
19167;SDS011;9716;53.114;18.040;2023-06-26T12:52:19;4.57;;;2.53;;
19167;SDS011;9716;53.114;18.040;2023-06-26T12:54:51;4.63;;;2.35;;
19167;SDS011;9716;53.114;18.040;2023-06-26T12:57:21;4.78;;;2.10;;
19167;SDS011;9716;53.114;18.040;2023-06-26T12:59:52;3.30;;;2.17;;
19167;SDS011;9716;53.114;18.040;2023-06-26T13:02:21;2.95;;;1.83;;
19167;SDS011;9716;53.114;18.040;2023-06-26T13:04:49;3.15;;;2.00;;
19167;SDS011;9716;53.114;18.040;2023-06-26T13:07:18;2.38;;;1.88;;
19167;SDS011;9716;53.114;18.040;2023-06-26T13:09:47;7.55;;;2.58;;
19167;SDS011;9716;53.114;18.040;2023-06-26T13:12:15;6.63;;;2.65;;
19167;SDS011;9716;53.114;18.040;2023-06-26T13:14:44;11.13;;;2.30;;
19167;SDS011;9716;53.114;18.040;2023-06-26T13:17:14;4.25;;;2.08;;
19167;SDS011;9716;53.114;18.040;2023-06-26T13:19:42;3.15;;;1.98;;
19167;SDS011;9716;53.114;18.040;2023-06-26T13:22:11;5.75;;;2.35;;
19167;SDS011;9716;53.114;18.040;2023-06-26T13:24:39;3.42;;;2.08;;
19167;SDS011;9716;53.114;18.040;2023-06-26T13:27:09;4.50;;;2.45;;
19167;SDS011;9716;53.114;18.040;2023-06-26T13:29:37;3.20;;;2.10;;
19167;SDS011;9716;53.114;18.040;2023-06-26T13:32:06;3.60;;;1.85;;
19167;SDS011;9716;53.114;18.040;2023-06-26T13:34:36;4.07;;;2.20;;
19167;SDS011;9716;53.114;18.040;2023-06-26T13:37:05;3.85;;;2.13;;
19167;SDS011;9716;53.114;18.040;2023-06-26T13:39:34;3.08;;;2.10;;
19167;SDS011;9716;53.114;18.040;2023-06-26T13:42:03;5.82;;;2.53;;
19167;SDS011;9716;53.114;18.040;2023-06-26T13:44:32;2.17;;;1.65;;
19167;SDS011;9716;53.114;18.040;2023-06-26T13:47:18;3.38;;;2.10;;
19167;SDS011;9716;53.114;18.040;2023-06-26T13:49:47;3.83;;;2.10;;
19167;SDS011;9716;53.114;18.040;2023-06-26T13:52:16;3.03;;;2.35;;
19167;SDS011;9716;53.114;18.040;2023-06-26T13:54:44;3.42;;;2.10;;
19167;SDS011;9716;53.114;18.040;2023-06-26T13:57:13;2.13;;;1.73;;
19167;SDS011;9716;53.114;18.040;2023-06-26T13:59:42;3.10;;;2.15;;
19167;SDS011;9716;53.114;18.040;2023-06-26T14:02:14;5.22;;;2.50;;
19167;SDS011;9716;53.114;18.040;2023-06-26T14:04:43;5.68;;;2.35;;
19167;SDS011;9716;53.114;18.040;2023-06-26T14:07:13;5.10;;;2.08;;
19167;SDS011;9716;53.114;18.040;2023-06-26T14:09:42;4.43;;;2.50;;
19167;SDS011;9716;53.114;18.040;2023-06-26T14:12:11;3.00;;;1.92;;
19167;SDS011;9716;53.114;18.040;2023-06-26T14:14:39;2.03;;;1.60;;
19167;SDS011;9716;53.114;18.040;2023-06-26T14:17:09;4.38;;;2.30;;
19167;SDS011;9716;53.114;18.040;2023-06-26T14:19:43;3.30;;;2.20;;
19167;SDS011;9716;53.114;18.040;2023-06-26T14:22:14;3.67;;;1.90;;
19167;SDS011;9716;53.114;18.040;2023-06-26T14:24:42;6.10;;;2.22;;
19167;SDS011;9716;53.114;18.040;2023-06-26T14:27:11;7.00;;;2.17;;
19167;SDS011;9716;53.114;18.040;2023-06-26T14:29:39;3.80;;;2.10;;
19167;SDS011;9716;53.114;18.040;2023-06-26T14:32:08;2.13;;;1.65;;
19167;SDS011;9716;53.114;18.040;2023-06-26T14:34:36;5.00;;;2.15;;
19167;SDS011;9716;53.114;18.040;2023-06-26T14:37:05;2.70;;;2.00;;
19167;SDS011;9716;53.114;18.040;2023-06-26T14:39:35;5.43;;;1.85;;
19167;SDS011;9716;53.114;18.040;2023-06-26T14:42:05;3.10;;;1.83;;
19167;SDS011;9716;53.114;18.040;2023-06-26T14:44:35;3.22;;;1.90;;
19167;SDS011;9716;53.114;18.040;2023-06-26T14:47:04;3.80;;;2.35;;
19167;SDS011;9716;53.114;18.040;2023-06-26T14:49:33;3.35;;;2.00;;
19167;SDS011;9716;53.114;18.040;2023-06-26T14:52:01;3.45;;;2.00;;
19167;SDS011;9716;53.114;18.040;2023-06-26T14:54:30;4.07;;;2.17;;
19167;SDS011;9716;53.114;18.040;2023-06-26T14:57:01;3.08;;;1.65;;
19167;SDS011;9716;53.114;18.040;2023-06-26T14:59:29;3.83;;;2.15;;
19167;SDS011;9716;53.114;18.040;2023-06-26T15:01:58;3.17;;;2.10;;
19167;SDS011;9716;53.114;18.040;2023-06-26T15:04:27;2.70;;;1.95;;